Time;durP1;ratioP1;P1;durP2;ratioP2;P2;SDS_P1;SDS_P2;PMS_P1;PMS_P2;Temp;Humidity;BMP_temperature;BMP_pressure;BME280_temperature;BME280_humidity;BME280_pressure;Samples;Min_cycle;Max_cycle;Signal;HPM_P1;HPM_P2
2023/08/26 00:01:32;;;;;;;;;;;25.60;59.40;;;;;;1582478;74;698;-55
2023/08/26 00:03:34;;;;;;;;;;;25.70;59.40;;;;;;1582102;74;779;-55
2023/08/26 00:05:35;;;;;;;;;;;25.60;59.40;;;;;;1583868;74;593;-54
2023/08/26 00:07:37;;;;;;;;;;;25.70;59.30;;;;;;1588179;74;699;-54
2023/08/26 00:09:39;;;;;;;;;;;25.70;59.10;;;;;;1588886;74;1124;-52
2023/08/26 00:11:41;;;;;;;;;;;25.70;58.80;;;;;;1585241;74;1951;-55
2023/08/26 00:13:43;;;;;;;;;;;25.70;58.80;;;;;;1585444;74;1518;-55
2023/08/26 00:15:45;;;;;;;;;;;25.70;59.10;;;;;;1591319;73;778;-56
2023/08/26 00:17:47;;;;;;;;;;;25.70;59.10;;;;;;1586444;74;814;-54
2023/08/26 00:19:50;;;;;;;;;;;25.60;59.20;;;;;;1579214;74;1131;-53
2023/08/26 00:21:52;;;;;;;;;;;25.70;59.20;;;;;;1585568;74;796;-52
2023/08/26 00:23:54;;;;;;;;;;;25.70;58.90;;;;;;1584118;74;767;-56
2023/08/26 00:25:56;;;;;;;;;;;25.70;59.00;;;;;;1580674;74;760;-55
2023/08/26 00:27:58;;;;;;;;;;;25.70;59.00;;;;;;1586077;74;1526;-55
2023/08/26 00:29:59;;;;;;;;;;;25.70;58.80;;;;;;1577860;73;1184;-54
2023/08/26 00:32:01;;;;;;;;;;;25.70;58.90;;;;;;1583923;73;1922;-55
2023/08/26 00:34:03;;;;;;;;;;;25.70;58.70;;;;;;1580013;73;677;-55
2023/08/26 00:36:05;;;;;;;;;;;25.70;58.90;;;;;;1602418;74;732;-52
2023/08/26 00:38:07;;;;;;;;;;;25.70;59.00;;;;;;1581577;73;692;-55
2023/08/26 00:40:09;;;;;;;;;;;25.70;59.20;;;;;;1577835;74;1144;-55
2023/08/26 00:42:11;;;;;;;;;;;25.70;59.10;;;;;;1583783;74;1582;-53
2023/08/26 00:44:13;;;;;;;;;;;25.70;58.90;;;;;;1586667;74;821;-53
2023/08/26 00:46:15;;;;;;;;;;;25.70;58.80;;;;;;1575461;73;792;-56
2023/08/26 00:48:17;;;;;;;;;;;25.70;59.10;;;;;;1591115;74;646;-52
2023/08/26 00:50:19;;;;;;;;;;;25.60;59.10;;;;;;1582034;74;1167;-55
2023/08/26 00:52:21;;;;;;;;;;;25.70;59.20;;;;;;1584256;74;1928;-55
2023/08/26 00:54:23;;;;;;;;;;;25.60;59.20;;;;;;1602753;74;719;-55
2023/08/26 00:56:25;;;;;;;;;;;25.60;58.90;;;;;;1595382;74;1648;-55
2023/08/26 00:58:27;;;;;;;;;;;25.60;58.90;;;;;;1580839;74;816;-53
2023/08/26 01:00:29;;;;;;;;;;;25.70;58.80;;;;;;1583649;74;1149;-52
2023/08/26 01:02:31;;;;;;;;;;;25.60;59.10;;;;;;1578516;74;730;-52
2023/08/26 01:04:33;;;;;;;;;;;25.60;58.80;;;;;;1579402;74;782;-54
2023/08/26 01:06:35;;;;;;;;;;;25.70;59.00;;;;;;1586977;74;727;-55
2023/08/26 01:08:37;;;;;;;;;;;25.60;59.00;;;;;;1592748;74;738;-54
2023/08/26 01:10:43;;;;;;;;;;;25.60;59.10;;;;;;1578548;74;1498;-55
2023/08/26 01:12:47;;;;;;;;;;;25.60;58.90;;;;;;1592908;73;1908;-53
2023/08/26 01:14:50;;;;;;;;;;;25.60;59.00;;;;;;1583797;74;789;-54
2023/08/26 01:16:52;;;;;;;;;;;25.60;59.10;;;;;;1587964;74;694;-52
2023/08/26 01:18:54;;;;;;;;;;;25.70;59.10;;;;;;1587436;74;711;-55
2023/08/26 01:20:56;;;;;;;;;;;25.60;59.00;;;;;;1582455;74;1151;-54
2023/08/26 01:22:58;;;;;;;;;;;25.60;59.00;;;;;;1578159;74;872;-55
2023/08/26 01:25:00;;;;;;;;;;;25.60;59.00;;;;;;1588623;74;1560;-54
2023/08/26 01:27:02;;;;;;;;;;;25.60;59.00;;;;;;1589718;73;711;-54
2023/08/26 01:29:04;;;;;;;;;;;25.60;58.90;;;;;;1578122;74;1159;-55
2023/08/26 01:31:08;;;;;;;;;;;25.60;58.90;;;;;;1578601;73;784;-55
2023/08/26 01:33:17;;;;;;;;;;;25.60;58.90;;;;;;1589189;74;1934;-54
2023/08/26 01:35:20;;;;;;;;;;;25.60;58.90;;;;;;1580111;73;748;-53
2023/08/26 01:37:23;;;;;;;;;;;25.60;58.80;;;;;;1578238;74;791;-54
2023/08/26 01:39:25;;;;;;;;;;;25.60;58.80;;;;;;1578130;73;1678;-54
2023/08/26 01:41:27;;;;;;;;;;;25.60;58.80;;;;;;1577923;74;779;-55
2023/08/26 01:43:28;;;;;;;;;;;25.60;58.70;;;;;;1593109;74;644;-53
2023/08/26 01:45:30;;;;;;;;;;;25.60;58.70;;;;;;1578015;74;730;-52
2023/08/26 01:47:32;;;;;;;;;;;25.60;58.60;;;;;;1577961;74;689;-54
2023/08/26 01:49:34;;;;;;;;;;;25.50;58.60;;;;;;1578542;74;1112;-54
2023/08/26 01:51:36;;;;;;;;;;;25.60;58.40;;;;;;1592152;74;1923;-55
2023/08/26 01:53:38;;;;;;;;;;;25.70;58.40;;;;;;1584737;74;1509;-55
2023/08/26 01:55:40;;;;;;;;;;;25.60;58.50;;;;;;1596803;74;716;-54
2023/08/26 01:57:42;;;;;;;;;;;25.60;58.60;;;;;;1585333;74;674;-53
2023/08/26 01:59:44;;;;;;;;;;;25.60;58.60;;;;;;1596783;73;1151;-53
2023/08/26 02:01:45;;;;;;;;;;;25.60;58.60;;;;;;1578701;73;701;-55
2023/08/26 02:03:47;;;;;;;;;;;25.50;58.60;;;;;;1588878;74;716;-53
2023/08/26 02:05:49;;;;;;;;;;;25.50;58.70;;;;;;1583834;74;718;-55
2023/08/26 02:07:51;;;;;;;;;;;25.60;58.70;;;;;;1578132;74;1432;-54
2023/08/26 02:09:53;;;;;;;;;;;25.60;58.70;;;;;;1586889;74;1144;-54
2023/08/26 02:11:55;;;;;;;;;;;25.50;58.60;;;;;;1580277;74;1922;-54
2023/08/26 02:13:57;;;;;;;;;;;25.60;58.60;;;;;;1578558;74;623;-53
2023/08/26 02:15:58;;;;;;;;;;;25.50;58.50;;;;;;1582647;74;745;-53
2023/08/26 02:18:01;;;;;;;;;;;25.60;58.40;;;;;;1593295;74;737;-52
2023/08/26 02:20:03;;;;;;;;;;;25.60;58.30;;;;;;1578280;74;1097;-52
2023/08/26 02:22:04;;;;;;;;;;;25.60;58.20;;;;;;1573527;74;1653;-54
2023/08/26 02:24:07;;;;;;;;;;;25.50;58.10;;;;;;1582260;74;711;-55
2023/08/26 02:26:09;;;;;;;;;;;25.50;57.90;;;;;;1578571;74;734;-54
2023/08/26 02:28:11;;;;;;;;;;;25.50;57.60;;;;;;1587879;73;904;-55
2023/08/26 02:30:13;;;;;;;;;;;25.50;57.50;;;;;;1584643;74;1144;-54
2023/08/26 02:32:15;;;;;;;;;;;25.60;57.30;;;;;;1581883;74;1910;-55
2023/08/26 02:34:17;;;;;;;;;;;25.50;57.10;;;;;;1578097;74;1311;-55
2023/08/26 02:36:19;;;;;;;;;;;25.50;56.90;;;;;;1592510;74;778;-54
2023/08/26 02:38:21;;;;;;;;;;;25.50;56.60;;;;;;1582184;73;719;-53
2023/08/26 02:40:23;;;;;;;;;;;25.50;56.50;;;;;;1598099;74;1131;-54
2023/08/26 02:42:25;;;;;;;;;;;25.50;56.30;;;;;;1593070;74;749;-52
2023/08/26 02:44:26;;;;;;;;;;;25.50;56.10;;;;;;1594349;73;786;-55
2023/08/26 02:46:28;;;;;;;;;;;25.50;56.00;;;;;;1594918;74;755;-53
2023/08/26 02:48:30;;;;;;;;;;;25.50;55.80;;;;;;1578333;74;1277;-53
2023/08/26 02:50:34;;;;;;;;;;;25.50;55.70;;;;;;1587236;74;1143;-55
2023/08/26 02:52:36;;;;;;;;;;;25.60;55.70;;;;;;1581157;74;1925;-54
2023/08/26 02:54:38;;;;;;;;;;;25.50;55.70;;;;;;1585710;74;777;-52
2023/08/26 02:56:39;;;;;;;;;;;25.50;55.60;;;;;;1579228;74;726;-52
2023/08/26 02:58:41;;;;;;;;;;;25.50;55.60;;;;;;1578472;74;739;-55
2023/08/26 03:00:44;;;;;;;;;;;25.50;55.50;;;;;;1582968;74;1176;-55
2023/08/26 03:02:45;;;;;;;;;;;25.50;55.60;;;;;;1578737;73;1514;-55
2023/08/26 03:04:47;;;;;;;;;;;25.50;55.70;;;;;;1587738;74;724;-54
2023/08/26 03:06:49;;;;;;;;;;;25.50;55.70;;;;;;1582743;74;783;-55
2023/08/26 03:08:51;;;;;;;;;;;25.50;55.70;;;;;;1577993;74;699;-52
2023/08/26 03:10:57;;;;;;;;;;;25.50;55.70;;;;;;1578127;73;1109;-55
2023/08/26 03:12:59;;;;;;;;;;;25.50;55.70;;;;;;1577238;74;1919;-54
2023/08/26 03:15:01;;;;;;;;;;;25.50;55.80;;;;;;1578960;74;744;-53
2023/08/26 03:17:03;;;;;;;;;;;25.40;55.80;;;;;;1579992;74;1275;-51
2023/08/26 03:19:05;;;;;;;;;;;25.50;55.90;;;;;;1587163;74;1121;-53
2023/08/26 03:21:07;;;;;;;;;;;25.50;56.00;;;;;;1579276;74;740;-54
2023/08/26 03:23:09;;;;;;;;;;;25.50;56.00;;;;;;1577443;74;663;-55
2023/08/26 03:25:11;;;;;;;;;;;25.50;56.10;;;;;;1578937;74;769;-53
2023/08/26 03:27:13;;;;;;;;;;;25.50;56.10;;;;;;1589649;74;786;-53
2023/08/26 03:29:15;;;;;;;;;;;25.50;56.10;;;;;;1585481;74;1150;-53
2023/08/26 03:31:17;;;;;;;;;;;25.50;56.20;;;;;;1581735;74;1485;-55
2023/08/26 03:33:19;;;;;;;;;;;25.50;56.20;;;;;;1595241;74;1914;-53
2023/08/26 03:35:20;;;;;;;;;;;25.40;56.30;;;;;;1581462;74;704;-56
2023/08/26 03:37:22;;;;;;;;;;;25.40;56.40;;;;;;1578091;74;726;-55
2023/08/26 03:39:24;;;;;;;;;;;25.40;56.40;;;;;;1578009;73;1120;-52
2023/08/26 03:41:26;;;;;;;;;;;25.40;56.40;;;;;;1569409;74;710;-53
2023/08/26 03:43:28;;;;;;;;;;;25.50;56.50;;;;;;1587300;73;764;-55
2023/08/26 03:45:30;;;;;;;;;;;25.50;56.50;;;;;;1586992;74;1538;-54
2023/08/26 03:47:32;;;;;;;;;;;25.50;56.50;;;;;;1578039;74;711;-55
2023/08/26 03:49:34;;;;;;;;;;;25.40;56.50;;;;;;1577681;74;1160;-54
2023/08/26 03:51:36;;;;;;;;;;;25.50;56.60;;;;;;1581143;74;699;-52
2023/08/26 03:53:38;;;;;;;;;;;25.40;56.60;;;;;;1582236;74;1947;-55
2023/08/26 03:55:40;;;;;;;;;;;25.50;56.60;;;;;;1596190;74;718;-55
2023/08/26 03:57:41;;;;;;;;;;;25.50;56.70;;;;;;1590777;73;944;-53
2023/08/26 03:59:44;;;;;;;;;;;25.50;56.70;;;;;;1587625;74;1337;-55
2023/08/26 04:01:46;;;;;;;;;;;25.50;56.80;;;;;;1595385;74;694;-55
2023/08/26 04:03:49;;;;;;;;;;;25.50;56.80;;;;;;1591860;74;819;-56
2023/08/26 04:05:53;;;;;;;;;;;25.50;56.80;;;;;;1588322;74;700;-55
2023/08/26 04:07:55;;;;;;;;;;;25.50;56.80;;;;;;1586351;74;1927;-54
2023/08/26 04:09:56;;;;;;;;;;;25.50;56.90;;;;;;1585472;74;1120;-55
2023/08/26 04:11:58;;;;;;;;;;;25.50;56.90;;;;;;1578172;74;733;-55
2023/08/26 04:14:00;;;;;;;;;;;25.50;56.80;;;;;;1578139;74;1935;-52
2023/08/26 04:16:03;;;;;;;;;;;25.50;56.90;;;;;;1578105;74;736;-55
2023/08/26 04:18:05;;;;;;;;;;;25.50;56.90;;;;;;1578346;74;733;-54
2023/08/26 04:20:07;;;;;;;;;;;25.50;56.90;;;;;;1590814;74;1115;-55
2023/08/26 04:22:10;;;;;;;;;;;25.50;57.00;;;;;;1586086;73;761;-54
2023/08/26 04:24:12;;;;;;;;;;;25.40;57.00;;;;;;1580369;74;768;-55
2023/08/26 04:26:14;;;;;;;;;;;25.50;57.00;;;;;;1589699;74;734;-55
2023/08/26 04:28:16;;;;;;;;;;;25.50;57.00;;;;;;1581725;74;1559;-53
2023/08/26 04:30:17;;;;;;;;;;;25.50;57.00;;;;;;1581728;74;1116;-54
2023/08/26 04:32:19;;;;;;;;;;;25.40;57.00;;;;;;1583822;74;680;-55
2023/08/26 04:34:22;;;;;;;;;;;25.50;57.00;;;;;;1591082;73;1933;-52
2023/08/26 04:36:24;;;;;;;;;;;25.40;57.00;;;;;;1585539;74;733;-54
2023/08/26 04:38:26;;;;;;;;;;;25.40;57.00;;;;;;1572860;74;764;-53
2023/08/26 04:40:28;;;;;;;;;;;25.50;57.00;;;;;;1584407;73;1144;-54
2023/08/26 04:42:30;;;;;;;;;;;25.40;57.00;;;;;;1588732;74;1674;-53
2023/08/26 04:44:32;;;;;;;;;;;25.40;57.00;;;;;;1579009;74;761;-52
2023/08/26 04:46:34;;;;;;;;;;;25.40;57.10;;;;;;1592460;74;719;-55
2023/08/26 04:48:35;;;;;;;;;;;25.40;57.00;;;;;;1579054;74;757;-56
2023/08/26 04:50:37;;;;;;;;;;;25.40;57.10;;;;;;1581035;74;1132;-55
2023/08/26 04:52:40;;;;;;;;;;;25.50;57.00;;;;;;1581365;74;792;-55
2023/08/26 04:54:42;;;;;;;;;;;25.40;57.10;;;;;;1591253;74;1951;-53
2023/08/26 04:56:44;;;;;;;;;;;25.40;57.10;;;;;;1579787;74;1572;-55
2023/08/26 04:58:46;;;;;;;;;;;25.40;57.10;;;;;;1597433;73;796;-54
2023/08/26 05:00:48;;;;;;;;;;;25.40;57.20;;;;;;1590691;74;1112;-55
2023/08/26 05:02:50;;;;;;;;;;;25.40;57.10;;;;;;1579136;74;673;-54
2023/08/26 05:04:53;;;;;;;;;;;25.50;57.10;;;;;;1578432;74;730;-54
2023/08/26 05:06:55;;;;;;;;;;;25.40;57.00;;;;;;1591878;74;710;-55
2023/08/26 05:08:57;;;;;;;;;;;25.40;57.00;;;;;;1592208;74;1555;-55
2023/08/26 05:10:59;;;;;;;;;;;25.40;57.00;;;;;;1580868;74;1144;-55
2023/08/26 05:13:00;;;;;;;;;;;25.40;57.00;;;;;;1595583;74;1929;-54
2023/08/26 05:15:04;;;;;;;;;;;25.40;56.90;;;;;;1592012;74;693;-53
2023/08/26 05:17:06;;;;;;;;;;;25.40;56.90;;;;;;1578558;74;770;-54
2023/08/26 05:19:08;;;;;;;;;;;25.40;56.90;;;;;;1587373;74;1136;-54
2023/08/26 05:21:10;;;;;;;;;;;25.40;56.80;;;;;;1579676;74;670;-55
2023/08/26 05:23:12;;;;;;;;;;;25.40;56.90;;;;;;1575218;74;1520;-54
2023/08/26 05:25:14;;;;;;;;;;;25.40;56.90;;;;;;1578105;74;767;-52
2023/08/26 05:27:16;;;;;;;;;;;25.40;56.90;;;;;;1588646;74;932;-55
2023/08/26 05:29:17;;;;;;;;;;;25.30;56.90;;;;;;1580225;74;1137;-52
2023/08/26 05:31:19;;;;;;;;;;;25.40;57.00;;;;;;1579966;73;1179;-55
2023/08/26 05:33:21;;;;;;;;;;;25.40;57.00;;;;;;1588967;74;1943;-55
2023/08/26 05:35:23;;;;;;;;;;;25.40;56.90;;;;;;1578391;74;740;-55
2023/08/26 05:37:25;;;;;;;;;;;25.40;56.90;;;;;;1584300;74;1523;-55
2023/08/26 05:39:28;;;;;;;;;;;25.30;56.90;;;;;;1592358;74;1146;-55
2023/08/26 05:41:30;;;;;;;;;;;25.40;57.00;;;;;;1578217;74;780;-55
2023/08/26 05:43:32;;;;;;;;;;;25.40;57.00;;;;;;1578123;74;708;-56
2023/08/26 05:45:34;;;;;;;;;;;25.30;57.00;;;;;;1578991;74;834;-55
2023/08/26 05:47:36;;;;;;;;;;;25.40;57.10;;;;;;1581210;74;779;-55
2023/08/26 05:49:37;;;;;;;;;;;25.40;57.10;;;;;;1586769;74;1119;-55
2023/08/26 05:51:39;;;;;;;;;;;25.40;57.10;;;;;;1578442;74;1516;-54
2023/08/26 05:53:41;;;;;;;;;;;25.40;57.00;;;;;;1594337;74;1935;-52
2023/08/26 05:55:44;;;;;;;;;;;25.40;57.00;;;;;;1579967;74;795;-55
2023/08/26 05:57:45;;;;;;;;;;;25.40;57.00;;;;;;1578289;74;713;-54
2023/08/26 05:59:47;;;;;;;;;;;25.40;57.10;;;;;;1592401;73;1126;-53
2023/08/26 06:01:49;;;;;;;;;;;25.40;57.10;;;;;;1590582;74;702;-55
2023/08/26 06:03:51;;;;;;;;;;;25.40;57.10;;;;;;1584178;73;726;-54
2023/08/26 06:05:53;;;;;;;;;;;25.40;57.10;;;;;;1578330;73;1261;-53
2023/08/26 06:07:55;;;;;;;;;;;25.40;57.20;;;;;;1575768;73;742;-53
2023/08/26 06:09:57;;;;;;;;;;;25.40;57.20;;;;;;1588045;74;1161;-55
2023/08/26 06:11:58;;;;;;;;;;;25.40;57.10;;;;;;1592663;74;741;-55
2023/08/26 06:14:00;;;;;;;;;;;25.40;57.20;;;;;;1595329;73;1934;-53
2023/08/26 06:16:02;;;;;;;;;;;25.40;57.10;;;;;;1577993;74;947;-54
2023/08/26 06:18:05;;;;;;;;;;;25.40;57.20;;;;;;1580372;74;775;-55
2023/08/26 06:20:07;;;;;;;;;;;25.40;57.10;;;;;;1582362;74;1460;-53
2023/08/26 06:22:09;;;;;;;;;;;25.40;57.20;;;;;;1583869;74;800;-53
2023/08/26 06:24:11;;;;;;;;;;;25.40;57.20;;;;;;1580073;74;800;-53
2023/08/26 06:26:13;;;;;;;;;;;25.40;57.30;;;;;;1581199;74;679;-55
2023/08/26 06:28:14;;;;;;;;;;;25.40;57.30;;;;;;1578462;74;677;-54
2023/08/26 06:30:16;;;;;;;;;;;25.40;57.40;;;;;;1574126;74;1141;-52
2023/08/26 06:32:19;;;;;;;;;;;25.40;57.40;;;;;;1589740;74;783;-52
2023/08/26 06:34:21;;;;;;;;;;;25.40;57.40;;;;;;1579253;74;1927;-52
2023/08/26 06:36:22;;;;;;;;;;;25.50;57.40;;;;;;1588527;74;729;-53
2023/08/26 06:38:24;;;;;;;;;;;25.30;57.50;;;;;;1594725;74;735;-53
2023/08/26 06:40:26;;;;;;;;;;;25.50;57.50;;;;;;1587749;74;1138;-55
2023/08/26 06:42:28;;;;;;;;;;;25.40;57.60;;;;;;1578638;74;816;-53
2023/08/26 06:44:30;;;;;;;;;;;25.50;57.50;;;;;;1580563;74;738;-55
2023/08/26 06:46:32;;;;;;;;;;;25.40;57.60;;;;;;1582072;74;775;-52
2023/08/26 06:48:34;;;;;;;;;;;25.50;57.60;;;;;;1586317;73;1312;-53
2023/08/26 06:50:36;;;;;;;;;;;25.40;57.60;;;;;;1585662;74;1089;-54
2023/08/26 06:52:38;;;;;;;;;;;25.40;57.60;;;;;;1581902;74;741;-55
2023/08/26 06:54:40;;;;;;;;;;;25.40;57.60;;;;;;1589147;74;1908;-54
2023/08/26 06:56:42;;;;;;;;;;;25.40;57.60;;;;;;1578661;74;744;-51
2023/08/26 06:58:44;;;;;;;;;;;25.40;57.70;;;;;;1587575;74;699;-55
2023/08/26 07:00:47;;;;;;;;;;;25.40;57.80;;;;;;1578079;74;1153;-55
2023/08/26 07:02:49;;;;;;;;;;;25.50;57.80;;;;;;1580284;73;1558;-53
2023/08/26 07:04:50;;;;;;;;;;;25.40;57.80;;;;;;1594210;73;757;-55
2023/08/26 07:06:52;;;;;;;;;;;25.50;57.80;;;;;;1578056;74;707;-55
2023/08/26 07:08:54;;;;;;;;;;;25.50;57.90;;;;;;1584488;74;703;-55
2023/08/26 07:10:56;;;;;;;;;;;25.40;58.10;;;;;;1579601;74;1093;-55
2023/08/26 07:12:58;;;;;;;;;;;25.50;58.10;;;;;;1582279;74;701;-54
2023/08/26 07:15:00;;;;;;;;;;;25.40;58.10;;;;;;1577489;74;1941;-53
2023/08/26 07:17:02;;;;;;;;;;;25.50;58.30;;;;;;1578557;74;1505;-53
2023/08/26 07:19:06;;;;;;;;;;;25.50;58.40;;;;;;1587093;74;1155;-54
2023/08/26 07:21:07;;;;;;;;;;;25.50;58.40;;;;;;1579702;74;777;-55
2023/08/26 07:23:09;;;;;;;;;;;25.40;58.40;;;;;;1588348;74;745;-55
2023/08/26 07:25:11;;;;;;;;;;;25.40;58.40;;;;;;1586390;74;728;-55
2023/08/26 07:27:13;;;;;;;;;;;25.50;58.40;;;;;;1573651;74;951;-53
2023/08/26 07:29:15;;;;;;;;;;;25.50;58.40;;;;;;1577754;73;1138;-53
2023/08/26 07:31:17;;;;;;;;;;;25.50;58.50;;;;;;1579531;74;1567;-55
2023/08/26 07:33:19;;;;;;;;;;;25.50;58.60;;;;;;1581705;74;810;-55
2023/08/26 07:35:20;;;;;;;;;;;25.50;58.70;;;;;;1597859;73;1918;-56
2023/08/26 07:37:22;;;;;;;;;;;25.50;58.80;;;;;;1578317;74;724;-54
2023/08/26 07:39:24;;;;;;;;;;;25.50;58.90;;;;;;1580067;74;1120;-54
2023/08/26 07:41:26;;;;;;;;;;;25.50;58.90;;;;;;1582854;74;745;-53
2023/08/26 07:43:28;;;;;;;;;;;25.50;59.00;;;;;;1590949;73;762;-53
2023/08/26 07:45:30;;;;;;;;;;;25.50;59.10;;;;;;1588332;74;1683;-55
2023/08/26 07:47:32;;;;;;;;;;;25.50;59.00;;;;;;1583822;74;725;-55
2023/08/26 07:49:34;;;;;;;;;;;25.50;59.00;;;;;;1577861;74;1144;-55
2023/08/26 07:51:35;;;;;;;;;;;25.40;59.00;;;;;;1578011;74;724;-55
2023/08/26 07:53:37;;;;;;;;;;;25.50;59.20;;;;;;1581585;74;1049;-54
2023/08/26 07:55:39;;;;;;;;;;;25.50;59.30;;;;;;1580148;74;1896;-51
2023/08/26 07:57:41;;;;;;;;;;;25.50;59.20;;;;;;1583683;74;1555;-52
2023/08/26 07:59:43;;;;;;;;;;;25.40;59.20;;;;;;1576832;74;1194;-52
2023/08/26 08:01:45;;;;;;;;;;;25.50;59.10;;;;;;1588826;74;717;-54
2023/08/26 08:03:47;;;;;;;;;;;25.40;59.00;;;;;;1596359;73;688;-54
2023/08/26 08:05:49;;;;;;;;;;;25.40;59.00;;;;;;1589418;74;952;-55
2023/08/26 08:07:51;;;;;;;;;;;25.50;58.80;;;;;;1579548;74;769;-54
2023/08/26 08:09:54;;;;;;;;;;;25.50;58.60;;;;;;1590078;74;1155;-54
2023/08/26 08:11:56;;;;;;;;;;;25.40;58.70;;;;;;1579342;74;1510;-52
2023/08/26 08:13:58;;;;;;;;;;;25.50;58.70;;;;;;1587257;74;1940;-53
2023/08/26 08:16:00;;;;;;;;;;;25.50;58.60;;;;;;1589646;74;736;-55
2023/08/26 08:18:02;;;;;;;;;;;25.50;58.60;;;;;;1583428;74;726;-53
2023/08/26 08:20:05;;;;;;;;;;;25.50;58.60;;;;;;1580443;74;1108;-55
2023/08/26 08:22:06;;;;;;;;;;;25.50;58.60;;;;;;1577305;74;758;-55
2023/08/26 08:24:08;;;;;;;;;;;25.50;58.60;;;;;;1579667;73;797;-55
2023/08/26 08:26:11;;;;;;;;;;;25.50;58.40;;;;;;1593494;74;1504;-55
2023/08/26 08:28:13;;;;;;;;;;;25.50;58.40;;;;;;1578279;74;713;-55
2023/08/26 08:30:15;;;;;;;;;;;25.50;58.40;;;;;;1581218;74;1102;-54
2023/08/26 08:32:17;;;;;;;;;;;25.50;58.30;;;;;;1577631;73;704;-54
2023/08/26 08:34:18;;;;;;;;;;;25.50;58.30;;;;;;1589598;74;1933;-54
2023/08/26 08:36:20;;;;;;;;;;;25.50;58.30;;;;;;1594432;74;748;-55
2023/08/26 08:38:22;;;;;;;;;;;25.50;58.20;;;;;;1578355;74;744;-53
2023/08/26 08:40:24;;;;;;;;;;;25.50;58.20;;;;;;1586982;74;1520;-52
2023/08/26 08:42:26;;;;;;;;;;;25.50;58.00;;;;;;1579629;74;726;-55
2023/08/26 08:44:30;;;;;;;;;;;25.50;58.00;;;;;;1595436;74;767;-55
2023/08/26 08:46:31;;;;;;;;;;;25.50;57.90;;;;;;1589376;74;1857;-54
2023/08/26 08:48:34;;;;;;;;;;;25.50;57.80;;;;;;1582274;74;701;-55
2023/08/26 08:50:36;;;;;;;;;;;25.50;57.80;;;;;;1591112;74;1164;-54
2023/08/26 08:52:38;;;;;;;;;;;25.50;57.90;;;;;;1569432;74;744;-53
2023/08/26 08:54:40;;;;;;;;;;;25.50;57.90;;;;;;1594445;74;1947;-52
2023/08/26 08:56:42;;;;;;;;;;;25.50;57.90;;;;;;1594988;73;817;-55
2023/08/26 08:58:47;;;;;;;;;;;25.50;58.00;;;;;;1597426;73;720;-54
2023/08/26 09:00:49;;;;;;;;;;;25.50;58.00;;;;;;1582273;74;1097;-54
2023/08/26 09:02:51;;;;;;;;;;;25.50;57.80;;;;;;1578196;74;764;-54
2023/08/26 09:04:53;;;;;;;;;;;25.50;57.70;;;;;;1584050;73;709;-55
2023/08/26 09:06:55;;;;;;;;;;;25.50;57.60;;;;;;1581193;74;702;-53
2023/08/26 09:08:59;;;;;;;;;;;25.50;57.60;;;;;;1578857;74;1568;-54
2023/08/26 09:11:01;;;;;;;;;;;25.50;57.40;;;;;;1578355;74;691;-53
2023/08/26 09:13:04;;;;;;;;;;;25.50;57.30;;;;;;1581833;74;759;-53
2023/08/26 09:15:07;;;;;;;;;;;25.60;57.30;;;;;;1578157;74;1924;-55
2023/08/26 09:17:18;;;;;;;;;;;25.50;57.30;;;;;;1579128;74;804;-55
2023/08/26 09:19:20;;;;;;;;;;;25.50;57.30;;;;;;1585435;74;1121;-55
2023/08/26 09:21:21;;;;;;;;;;;25.50;57.20;;;;;;1580360;74;674;-53
2023/08/26 09:23:23;;;;;;;;;;;25.50;57.10;;;;;;1575371;74;1498;-52
2023/08/26 09:25:26;;;;;;;;;;;25.50;57.00;;;;;;1584819;73;761;-52
2023/08/26 09:27:27;;;;;;;;;;;25.50;56.70;;;;;;1582151;74;793;-55
2023/08/26 09:29:29;;;;;;;;;;;25.50;56.50;;;;;;1581423;74;1147;-52
2023/08/26 09:31:31;;;;;;;;;;;25.50;56.50;;;;;;1556613;75;794;-54
2023/08/26 09:33:33;;;;;;;;;;;25.50;56.50;;;;;;1584882;74;805;-54
2023/08/26 09:35:35;;;;;;;;;;;25.50;56.50;;;;;;1577917;74;1919;-54
2023/08/26 09:37:37;;;;;;;;;;;25.50;56.50;;;;;;1587013;74;1588;-54
2023/08/26 09:39:46;;;;;;;;;;;25.50;56.60;;;;;;1585232;74;1157;-54
2023/08/26 09:41:48;;;;;;;;;;;25.50;56.80;;;;;;1578575;74;743;-55
2023/08/26 09:43:50;;;;;;;;;;;25.50;56.80;;;;;;1586800;74;715;-53
2023/08/26 09:45:56;;;;;;;;;;;25.50;56.80;;;;;;1582348;74;704;-54
2023/08/26 09:47:58;;;;;;;;;;;25.50;56.80;;;;;;1578174;74;592;-55
2023/08/26 09:50:00;;;;;;;;;;;25.50;56.80;;;;;;1578927;74;1189;-54
2023/08/26 09:52:02;;;;;;;;;;;25.60;56.90;;;;;;1578196;73;1473;-52
2023/08/26 09:54:04;;;;;;;;;;;25.60;57.00;;;;;;1574156;73;824;-54
2023/08/26 09:56:05;;;;;;;;;;;25.60;56.90;;;;;;1592504;74;1934;-53
2023/08/26 09:58:07;;;;;;;;;;;25.60;57.00;;;;;;1578083;74;723;-53
2023/08/26 10:00:14;;;;;;;;;;;25.60;57.00;;;;;;1585743;73;1148;-53
2023/08/26 10:02:22;;;;;;;;;;;25.60;57.00;;;;;;1583826;74;1611;-56
2023/08/26 10:04:25;;;;;;;;;;;25.60;57.00;;;;;;1582715;74;1345;-56
2023/08/26 10:06:27;;;;;;;;;;;25.50;57.00;;;;;;1578247;74;685;-55
2023/08/26 10:08:30;;;;;;;;;;;25.50;57.00;;;;;;1577584;74;687;-54
2023/08/26 10:10:34;;;;;;;;;;;25.50;57.00;;;;;;1584975;74;1116;-55
2023/08/26 10:12:40;;;;;;;;;;;25.50;57.00;;;;;;1583539;74;989;-55
2023/08/26 10:14:42;;;;;;;;;;;25.60;57.00;;;;;;1572242;74;1951;-55
2023/08/26 10:16:44;;;;;;;;;;;25.50;57.00;;;;;;1580698;74;730;-56
2023/08/26 10:18:47;;;;;;;;;;;25.60;57.10;;;;;;1579918;73;1425;-51
2023/08/26 10:20:49;;;;;;;;;;;25.70;57.10;;;;;;1579323;74;1082;-56
2023/08/26 10:22:51;;;;;;;;;;;25.50;57.00;;;;;;1579812;73;751;-56
2023/08/26 10:24:53;;;;;;;;;;;25.50;57.00;;;;;;1578171;74;740;-55
2023/08/26 10:26:55;;;;;;;;;;;25.60;57.00;;;;;;1581253;73;745;-56
2023/08/26 10:28:57;;;;;;;;;;;25.60;57.00;;;;;;1587157;73;673;-56
2023/08/26 10:30:59;;;;;;;;;;;25.70;57.00;;;;;;1582638;74;1136;-54
2023/08/26 10:33:01;;;;;;;;;;;25.60;57.00;;;;;;1571547;74;1288;-55
2023/08/26 10:35:03;;;;;;;;;;;25.60;57.00;;;;;;1578161;74;1943;-55
2023/08/26 10:37:05;;;;;;;;;;;25.60;57.00;;;;;;1575672;73;716;-54
2023/08/26 10:39:14;;;;;;;;;;;25.50;57.10;;;;;;1547757;75;1158;-56
2023/08/26 10:41:16;;;;;;;;;;;25.60;57.00;;;;;;1585531;74;761;-55
2023/08/26 10:43:18;;;;;;;;;;;25.60;57.00;;;;;;1578790;73;768;-55
2023/08/26 10:45:20;;;;;;;;;;;25.60;57.00;;;;;;1583293;73;746;-55
2023/08/26 10:47:24;;;;;;;;;;;25.60;57.00;;;;;;1550348;75;1550;-53
2023/08/26 10:49:28;;;;;;;;;;;25.60;57.00;;;;;;1572910;73;1194;-55
2023/08/26 10:51:31;;;;;;;;;;;25.60;57.00;;;;;;1579570;73;718;-55
2023/08/26 10:53:34;;;;;;;;;;;25.60;57.00;;;;;;1580233;74;821;-53
2023/08/26 10:55:36;;;;;;;;;;;25.60;57.00;;;;;;1586840;74;1941;-55
2023/08/26 10:57:38;;;;;;;;;;;25.60;57.00;;;;;;1577980;73;743;-55
2023/08/26 10:59:40;;;;;;;;;;;25.70;57.10;;;;;;1561928;74;1120;-55
2023/08/26 11:01:43;;;;;;;;;;;25.70;57.10;;;;;;1598410;74;1364;-53
2023/08/26 11:03:45;;;;;;;;;;;25.70;57.00;;;;;;1602659;74;770;-55
2023/08/26 11:05:47;;;;;;;;;;;25.60;57.10;;;;;;1599434;74;729;-52
2023/08/26 11:07:49;;;;;;;;;;;25.60;57.10;;;;;;1578930;73;759;-53
2023/08/26 11:09:51;;;;;;;;;;;25.60;57.10;;;;;;1579739;74;1089;-55
2023/08/26 11:11:54;;;;;;;;;;;25.70;57.10;;;;;;1578811;73;711;-55
2023/08/26 11:13:56;;;;;;;;;;;25.60;57.10;;;;;;1578643;73;688;-55
2023/08/26 11:15:58;;;;;;;;;;;25.60;57.10;;;;;;1589517;73;1921;-56
2023/08/26 11:18:00;;;;;;;;;;;25.60;57.10;;;;;;1591219;73;688;-55
2023/08/26 11:20:04;;;;;;;;;;;25.60;57.10;;;;;;1580086;74;1140;-55
2023/08/26 11:22:05;;;;;;;;;;;25.60;57.10;;;;;;1577485;74;1698;-56
2023/08/26 11:24:07;;;;;;;;;;;25.60;57.10;;;;;;1588901;74;764;-54
2023/08/26 11:26:09;;;;;;;;;;;25.60;57.10;;;;;;1579222;74;663;-54
2023/08/26 11:28:11;;;;;;;;;;;25.60;57.10;;;;;;1584697;73;795;-56
2023/08/26 11:30:13;;;;;;;;;;;25.60;57.10;;;;;;1579896;73;1508;-56
2023/08/26 11:32:15;;;;;;;;;;;25.60;57.10;;;;;;1580401;74;711;-52
2023/08/26 11:34:19;;;;;;;;;;;25.60;57.10;;;;;;1580499;74;694;-56
2023/08/26 11:36:22;;;;;;;;;;;25.60;57.00;;;;;;1578192;74;1931;-52
2023/08/26 11:38:24;;;;;;;;;;;25.60;57.00;;;;;;1584436;74;728;-52
2023/08/26 11:40:26;;;;;;;;;;;25.60;57.10;;;;;;1590193;74;1167;-52
2023/08/26 11:42:28;;;;;;;;;;;25.70;57.00;;;;;;1582707;74;748;-55
2023/08/26 11:44:30;;;;;;;;;;;25.60;57.00;;;;;;1581097;74;1520;-54
2023/08/26 11:46:31;;;;;;;;;;;25.70;57.10;;;;;;1582927;74;1057;-54
2023/08/26 11:48:36;;;;;;;;;;;25.70;57.10;;;;;;1593487;73;763;-55
2023/08/26 11:50:38;;;;;;;;;;;25.60;57.10;;;;;;1587731;74;1167;-52
2023/08/26 11:52:41;;;;;;;;;;;25.60;57.10;;;;;;1580820;74;725;-54
2023/08/26 11:54:43;;;;;;;;;;;25.60;57.10;;;;;;1592445;74;708;-54
2023/08/26 11:56:45;;;;;;;;;;;25.60;57.00;;;;;;1582483;74;1936;-53
2023/08/26 11:58:47;;;;;;;;;;;25.60;57.10;;;;;;1591411;74;711;-55
2023/08/26 12:00:49;;;;;;;;;;;25.60;57.20;;;;;;1583759;74;1084;-56
2023/08/26 12:02:51;;;;;;;;;;;25.60;57.10;;;;;;1593250;74;734;-55
2023/08/26 12:04:57;;;;;;;;;;;25.60;57.10;;;;;;1578380;74;658;-54
2023/08/26 12:06:59;;;;;;;;;;;25.60;57.10;;;;;;1588815;74;645;-53
2023/08/26 12:09:00;;;;;;;;;;;25.60;57.10;;;;;;1589118;73;1137;-55